sensor_id;sensor_type;location;lat;lon;timestamp;P1;P2;P0
82667;PMS5003;72691;51.374;-0.176;2023-12-14T00:00:20;8;8;
82667;PMS5003;72691;51.374;-0.176;2023-12-14T00:02:45;9;8;
82667;PMS5003;72691;51.374;-0.176;2023-12-14T00:05:10;8;8;
82667;PMS5003;72691;51.374;-0.176;2023-12-14T00:07:36;8;8;
82667;PMS5003;72691;51.374;-0.176;2023-12-14T00:10:01;8;8;
82667;PMS5003;72691;51.374;-0.176;2023-12-14T00:12:27;8;8;
82667;PMS5003;72691;51.374;-0.176;2023-12-14T00:14:52;8;8;
82667;PMS5003;72691;51.374;-0.176;2023-12-14T00:17:17;11;11;
82667;PMS5003;72691;51.374;-0.176;2023-12-14T00:19:42;7;6;
82667;PMS5003;72691;51.374;-0.176;2023-12-14T00:22:08;6;6;
82667;PMS5003;72691;51.374;-0.176;2023-12-14T00:24:33;7;7;
82667;PMS5003;72691;51.374;-0.176;2023-12-14T00:26:59;8;8;
82667;PMS5003;72691;51.374;-0.176;2023-12-14T00:29:24;6;6;
82667;PMS5003;72691;51.374;-0.176;2023-12-14T00:31:50;9;8;
82667;PMS5003;72691;51.374;-0.176;2023-12-14T00:34:15;9;8;
82667;PMS5003;72691;51.374;-0.176;2023-12-14T00:36:41;9;8;
82667;PMS5003;72691;51.374;-0.176;2023-12-14T00:39:06;7;7;
82667;PMS5003;72691;51.374;-0.176;2023-12-14T00:41:32;5;5;
82667;PMS5003;72691;51.374;-0.176;2023-12-14T00:43:57;8;8;
82667;PMS5003;72691;51.374;-0.176;2023-12-14T00:46:23;8;8;
82667;PMS5003;72691;51.374;-0.176;2023-12-14T00:48:48;8;7;
82667;PMS5003;72691;51.374;-0.176;2023-12-14T00:51:13;6;6;
82667;PMS5003;72691;51.374;-0.176;2023-12-14T00:53:39;7;7;
82667;PMS5003;72691;51.374;-0.176;2023-12-14T00:56:06;7;7;
82667;PMS5003;72691;51.374;-0.176;2023-12-14T00:58:30;7;7;
82667;PMS5003;72691;51.374;-0.176;2023-12-14T01:00:55;8;8;
82667;PMS5003;72691;51.374;-0.176;2023-12-14T01:03:21;6;6;
82667;PMS5003;72691;51.374;-0.176;2023-12-14T01:05:46;7;6;
82667;PMS5003;72691;51.374;-0.176;2023-12-14T01:08:12;5;5;
82667;PMS5003;72691;51.374;-0.176;2023-12-14T01:10:37;9;8;
82667;PMS5003;72691;51.374;-0.176;2023-12-14T01:13:02;7;7;
82667;PMS5003;72691;51.374;-0.176;2023-12-14T01:15:28;5;5;
82667;PMS5003;72691;51.374;-0.176;2023-12-14T01:17:53;6;6;
82667;PMS5003;72691;51.374;-0.176;2023-12-14T01:20:18;4;4;
82667;PMS5003;72691;51.374;-0.176;2023-12-14T01:22:44;6;6;
82667;PMS5003;72691;51.374;-0.176;2023-12-14T01:25:09;6;4;
82667;PMS5003;72691;51.374;-0.176;2023-12-14T01:27:35;7;7;
82667;PMS5003;72691;51.374;-0.176;2023-12-14T01:30:00;4;4;
82667;PMS5003;72691;51.374;-0.176;2023-12-14T01:32:26;8;7;
82667;PMS5003;72691;51.374;-0.176;2023-12-14T01:34:51;7;6;
82667;PMS5003;72691;51.374;-0.176;2023-12-14T01:37:17;6;6;
82667;PMS5003;72691;51.374;-0.176;2023-12-14T01:39:42;7;6;
82667;PMS5003;72691;51.374;-0.176;2023-12-14T01:42:07;7;7;
82667;PMS5003;72691;51.374;-0.176;2023-12-14T01:44:33;4;4;
82667;PMS5003;72691;51.374;-0.176;2023-12-14T01:46:58;6;6;
82667;PMS5003;72691;51.374;-0.176;2023-12-14T01:49:24;6;6;
82667;PMS5003;72691;51.374;-0.176;2023-12-14T01:51:49;7;6;
82667;PMS5003;72691;51.374;-0.176;2023-12-14T01:54:15;6;6;
82667;PMS5003;72691;51.374;-0.176;2023-12-14T01:56:40;4;4;
82667;PMS5003;72691;51.374;-0.176;2023-12-14T01:59:06;6;6;
82667;PMS5003;72691;51.374;-0.176;2023-12-14T02:01:33;6;6;
82667;PMS5003;72691;51.374;-0.176;2023-12-14T02:03:57;7;6;
82667;PMS5003;72691;51.374;-0.176;2023-12-14T02:06:22;7;7;
82667;PMS5003;72691;51.374;-0.176;2023-12-14T02:08:48;6;6;
82667;PMS5003;72691;51.374;-0.176;2023-12-14T02:11:13;8;8;
82667;PMS5003;72691;51.374;-0.176;2023-12-14T02:13:38;7;6;
82667;PMS5003;72691;51.374;-0.176;2023-12-14T02:16:04;4;4;
82667;PMS5003;72691;51.374;-0.176;2023-12-14T02:18:29;6;6;
82667;PMS5003;72691;51.374;-0.176;2023-12-14T02:20:54;7;6;
82667;PMS5003;72691;51.374;-0.176;2023-12-14T02:23:20;6;6;
82667;PMS5003;72691;51.374;-0.176;2023-12-14T02:25:45;6;4;
82667;PMS5003;72691;51.374;-0.176;2023-12-14T02:28:11;7;7;
82667;PMS5003;72691;51.374;-0.176;2023-12-14T02:30:36;8;7;
82667;PMS5003;72691;51.374;-0.176;2023-12-14T02:33:02;7;6;
82667;PMS5003;72691;51.374;-0.176;2023-12-14T02:35:27;6;6;
82667;PMS5003;72691;51.374;-0.176;2023-12-14T02:37:53;6;6;
82667;PMS5003;72691;51.374;-0.176;2023-12-14T02:40:18;7;7;
82667;PMS5003;72691;51.374;-0.176;2023-12-14T02:42:43;7;7;
82667;PMS5003;72691;51.374;-0.176;2023-12-14T02:45:09;7;7;
82667;PMS5003;72691;51.374;-0.176;2023-12-14T02:47:34;7;7;
82667;PMS5003;72691;51.374;-0.176;2023-12-14T02:49:59;6;4;
82667;PMS5003;72691;51.374;-0.176;2023-12-14T02:52:24;8;6;
82667;PMS5003;72691;51.374;-0.176;2023-12-14T02:54:50;8;6;
82667;PMS5003;72691;51.374;-0.176;2023-12-14T02:57:15;6;6;
82667;PMS5003;72691;51.374;-0.176;2023-12-14T02:59:41;8;8;
82667;PMS5003;72691;51.374;-0.176;2023-12-14T03:02:06;8;7;
82667;PMS5003;72691;51.374;-0.176;2023-12-14T03:04:32;7;4;
82667;PMS5003;72691;51.374;-0.176;2023-12-14T03:06:57;6;6;
82667;PMS5003;72691;51.374;-0.176;2023-12-14T03:09:23;9;8;
82667;PMS5003;72691;51.374;-0.176;2023-12-14T03:11:48;6;6;
82667;PMS5003;72691;51.374;-0.176;2023-12-14T03:14:13;7;6;
82667;PMS5003;72691;51.374;-0.176;2023-12-14T03:16:39;4;4;
82667;PMS5003;72691;51.374;-0.176;2023-12-14T03:19:04;4;4;
82667;PMS5003;72691;51.374;-0.176;2023-12-14T03:21:30;7;6;
82667;PMS5003;72691;51.374;-0.176;2023-12-14T03:23:55;6;6;
82667;PMS5003;72691;51.374;-0.176;2023-12-14T03:26:21;6;6;
82667;PMS5003;72691;51.374;-0.176;2023-12-14T03:28:46;6;6;
82667;PMS5003;72691;51.374;-0.176;2023-12-14T03:31:12;6;6;
82667;PMS5003;72691;51.374;-0.176;2023-12-14T03:33:37;8;7;
82667;PMS5003;72691;51.374;-0.176;2023-12-14T03:36:03;8;5;
82667;PMS5003;72691;51.374;-0.176;2023-12-14T03:38:28;4;4;
82667;PMS5003;72691;51.374;-0.176;2023-12-14T03:40:53;7;7;
82667;PMS5003;72691;51.374;-0.176;2023-12-14T03:43:19;7;6;
82667;PMS5003;72691;51.374;-0.176;2023-12-14T03:45:44;4;4;
82667;PMS5003;72691;51.374;-0.176;2023-12-14T03:48:10;7;6;
82667;PMS5003;72691;51.374;-0.176;2023-12-14T03:50:35;6;6;
82667;PMS5003;72691;51.374;-0.176;2023-12-14T03:53:01;6;6;
82667;PMS5003;72691;51.374;-0.176;2023-12-14T03:55:26;7;7;
82667;PMS5003;72691;51.374;-0.176;2023-12-14T03:57:52;7;7;
82667;PMS5003;72691;51.374;-0.176;2023-12-14T04:00:17;6;6;
82667;PMS5003;72691;51.374;-0.176;2023-12-14T04:02:42;8;8;
82667;PMS5003;72691;51.374;-0.176;2023-12-14T04:05:08;7;6;
82667;PMS5003;72691;51.374;-0.176;2023-12-14T04:07:33;11;9;
82667;PMS5003;72691;51.374;-0.176;2023-12-14T04:09:59;6;6;
82667;PMS5003;72691;51.374;-0.176;2023-12-14T04:12:24;7;7;
82667;PMS5003;72691;51.374;-0.176;2023-12-14T04:14:50;8;8;
82667;PMS5003;72691;51.374;-0.176;2023-12-14T04:17:15;8;7;
82667;PMS5003;72691;51.374;-0.176;2023-12-14T04:19:41;6;6;
82667;PMS5003;72691;51.374;-0.176;2023-12-14T04:22:06;9;8;
82667;PMS5003;72691;51.374;-0.176;2023-12-14T04:24:31;8;7;
82667;PMS5003;72691;51.374;-0.176;2023-12-14T04:26:56;11;10;
82667;PMS5003;72691;51.374;-0.176;2023-12-14T04:29:22;7;7;
82667;PMS5003;72691;51.374;-0.176;2023-12-14T04:31:47;8;8;
82667;PMS5003;72691;51.374;-0.176;2023-12-14T04:34:13;7;7;
82667;PMS5003;72691;51.374;-0.176;2023-12-14T04:36:38;7;7;
82667;PMS5003;72691;51.374;-0.176;2023-12-14T04:39:04;10;8;
82667;PMS5003;72691;51.374;-0.176;2023-12-14T04:41:29;8;7;
82667;PMS5003;72691;51.374;-0.176;2023-12-14T04:43:54;8;7;
82667;PMS5003;72691;51.374;-0.176;2023-12-14T04:46:20;8;8;
82667;PMS5003;72691;51.374;-0.176;2023-12-14T04:48:45;10;10;
82667;PMS5003;72691;51.374;-0.176;2023-12-14T04:51:11;7;6;
82667;PMS5003;72691;51.374;-0.176;2023-12-14T04:53:36;7;7;
82667;PMS5003;72691;51.374;-0.176;2023-12-14T04:56:02;10;10;
82667;PMS5003;72691;51.374;-0.176;2023-12-14T04:58:27;11;10;
82667;PMS5003;72691;51.374;-0.176;2023-12-14T05:00:53;12;11;
82667;PMS5003;72691;51.374;-0.176;2023-12-14T05:03:18;11;10;
82667;PMS5003;72691;51.374;-0.176;2023-12-14T05:05:43;7;7;
82667;PMS5003;72691;51.374;-0.176;2023-12-14T05:08:09;11;11;
82667;PMS5003;72691;51.374;-0.176;2023-12-14T05:10:34;10;10;
82667;PMS5003;72691;51.374;-0.176;2023-12-14T05:13:00;10;8;
82667;PMS5003;72691;51.374;-0.176;2023-12-14T05:15:25;8;8;
82667;PMS5003;72691;51.374;-0.176;2023-12-14T05:17:51;11;11;
82667;PMS5003;72691;51.374;-0.176;2023-12-14T05:20:16;8;8;
82667;PMS5003;72691;51.374;-0.176;2023-12-14T05:22:41;10;10;
82667;PMS5003;72691;51.374;-0.176;2023-12-14T05:25:07;10;10;
82667;PMS5003;72691;51.374;-0.176;2023-12-14T05:27:32;8;7;
82667;PMS5003;72691;51.374;-0.176;2023-12-14T05:29:57;9;9;
82667;PMS5003;72691;51.374;-0.176;2023-12-14T05:32:23;14;14;
82667;PMS5003;72691;51.374;-0.176;2023-12-14T05:34:49;11;10;
82667;PMS5003;72691;51.374;-0.176;2023-12-14T05:37:14;11;10;
82667;PMS5003;72691;51.374;-0.176;2023-12-14T05:39:40;10;10;
82667;PMS5003;72691;51.374;-0.176;2023-12-14T05:42:05;10;9;
82667;PMS5003;72691;51.374;-0.176;2023-12-14T05:44:30;12;11;
82667;PMS5003;72691;51.374;-0.176;2023-12-14T05:46:55;7;7;
82667;PMS5003;72691;51.374;-0.176;2023-12-14T05:49:21;12;11;
82667;PMS5003;72691;51.374;-0.176;2023-12-14T05:51:46;9;7;
82667;PMS5003;72691;51.374;-0.176;2023-12-14T05:54:12;10;10;
82667;PMS5003;72691;51.374;-0.176;2023-12-14T05:56:37;9;9;
82667;PMS5003;72691;51.374;-0.176;2023-12-14T05:59:03;10;10;
82667;PMS5003;72691;51.374;-0.176;2023-12-14T06:01:28;11;10;
82667;PMS5003;72691;51.374;-0.176;2023-12-14T06:03:54;9;9;
82667;PMS5003;72691;51.374;-0.176;2023-12-14T06:06:19;14;11;
82667;PMS5003;72691;51.374;-0.176;2023-12-14T06:08:45;13;11;
82667;PMS5003;72691;51.374;-0.176;2023-12-14T06:11:10;11;11;
82667;PMS5003;72691;51.374;-0.176;2023-12-14T06:13:36;9;9;
82667;PMS5003;72691;51.374;-0.176;2023-12-14T06:16:01;13;11;
82667;PMS5003;72691;51.374;-0.176;2023-12-14T06:18:26;9;7;
82667;PMS5003;72691;51.374;-0.176;2023-12-14T06:20:52;9;9;
82667;PMS5003;72691;51.374;-0.176;2023-12-14T06:23:17;11;10;
82667;PMS5003;72691;51.374;-0.176;2023-12-14T06:25:43;10;10;
82667;PMS5003;72691;51.374;-0.176;2023-12-14T06:28:08;10;10;
82667;PMS5003;72691;51.374;-0.176;2023-12-14T06:30:34;9;9;
82667;PMS5003;72691;51.374;-0.176;2023-12-14T06:32:59;10;9;
82667;PMS5003;72691;51.374;-0.176;2023-12-14T06:35:25;9;9;
82667;PMS5003;72691;51.374;-0.176;2023-12-14T06:37:50;9;7;
82667;PMS5003;72691;51.374;-0.176;2023-12-14T06:40:16;10;9;
82667;PMS5003;72691;51.374;-0.176;2023-12-14T06:42:41;11;7;
82667;PMS5003;72691;51.374;-0.176;2023-12-14T06:45:07;11;7;
82667;PMS5003;72691;51.374;-0.176;2023-12-14T06:47:32;9;9;
82667;PMS5003;72691;51.374;-0.176;2023-12-14T06:49:58;10;9;
82667;PMS5003;72691;51.374;-0.176;2023-12-14T06:52:23;9;7;
82667;PMS5003;72691;51.374;-0.176;2023-12-14T06:54:49;7;7;
82667;PMS5003;72691;51.374;-0.176;2023-12-14T06:57:14;9;7;
82667;PMS5003;72691;51.374;-0.176;2023-12-14T06:59:40;6;6;
82667;PMS5003;72691;51.374;-0.176;2023-12-14T07:02:05;7;6;
82667;PMS5003;72691;51.374;-0.176;2023-12-14T07:04:31;6;6;
82667;PMS5003;72691;51.374;-0.176;2023-12-14T07:06:56;7;5;
82667;PMS5003;72691;51.374;-0.176;2023-12-14T07:09:22;7;7;
82667;PMS5003;72691;51.374;-0.176;2023-12-14T07:11:47;9;9;
82667;PMS5003;72691;51.374;-0.176;2023-12-14T07:14:13;7;7;
82667;PMS5003;72691;51.374;-0.176;2023-12-14T07:16:38;8;7;
82667;PMS5003;72691;51.374;-0.176;2023-12-14T07:19:03;8;7;
82667;PMS5003;72691;51.374;-0.176;2023-12-14T07:21:29;10;8;
82667;PMS5003;72691;51.374;-0.176;2023-12-14T07:23:54;9;9;
82667;PMS5003;72691;51.374;-0.176;2023-12-14T07:26:20;7;7;
82667;PMS5003;72691;51.374;-0.176;2023-12-14T07:28:45;7;7;
82667;PMS5003;72691;51.374;-0.176;2023-12-14T07:31:10;8;7;
82667;PMS5003;72691;51.374;-0.176;2023-12-14T07:33:36;10;10;
82667;PMS5003;72691;51.374;-0.176;2023-12-14T07:36:01;7;7;
82667;PMS5003;72691;51.374;-0.176;2023-12-14T07:38:27;8;8;
82667;PMS5003;72691;51.374;-0.176;2023-12-14T07:40:52;9;9;
82667;PMS5003;72691;51.374;-0.176;2023-12-14T07:43:17;8;7;
82667;PMS5003;72691;51.374;-0.176;2023-12-14T07:45:43;8;8;
82667;PMS5003;72691;51.374;-0.176;2023-12-14T07:48:08;7;7;
82667;PMS5003;72691;51.374;-0.176;2023-12-14T07:50:34;11;11;
82667;PMS5003;72691;51.374;-0.176;2023-12-14T07:52:59;11;7;
82667;PMS5003;72691;51.374;-0.176;2023-12-14T07:55:25;7;7;
82667;PMS5003;72691;51.374;-0.176;2023-12-14T07:57:50;8;8;
82667;PMS5003;72691;51.374;-0.176;2023-12-14T08:00:16;15;14;
82667;PMS5003;72691;51.374;-0.176;2023-12-14T08:02:41;10;8;
82667;PMS5003;72691;51.374;-0.176;2023-12-14T08:05:07;7;7;
82667;PMS5003;72691;51.374;-0.176;2023-12-14T08:07:32;7;7;
82667;PMS5003;72691;51.374;-0.176;2023-12-14T08:09:58;10;10;
82667;PMS5003;72691;51.374;-0.176;2023-12-14T08:12:23;7;6;
82667;PMS5003;72691;51.374;-0.176;2023-12-14T08:14:49;9;7;
82667;PMS5003;72691;51.374;-0.176;2023-12-14T08:17:14;10;8;
82667;PMS5003;72691;51.374;-0.176;2023-12-14T08:19:39;7;7;
82667;PMS5003;72691;51.374;-0.176;2023-12-14T08:22:05;11;7;
82667;PMS5003;72691;51.374;-0.176;2023-12-14T08:24:30;7;7;
82667;PMS5003;72691;51.374;-0.176;2023-12-14T08:26:56;9;9;
82667;PMS5003;72691;51.374;-0.176;2023-12-14T08:29:21;8;8;
82667;PMS5003;72691;51.374;-0.176;2023-12-14T08:31:47;8;8;
82667;PMS5003;72691;51.374;-0.176;2023-12-14T08:34:12;7;7;
82667;PMS5003;72691;51.374;-0.176;2023-12-14T08:36:38;7;7;
82667;PMS5003;72691;51.374;-0.176;2023-12-14T08:39:03;6;6;
82667;PMS5003;72691;51.374;-0.176;2023-12-14T08:41:29;7;7;
82667;PMS5003;72691;51.374;-0.176;2023-12-14T08:43:54;7;7;
82667;PMS5003;72691;51.374;-0.176;2023-12-14T08:46:20;7;7;
82667;PMS5003;72691;51.374;-0.176;2023-12-14T08:48:45;8;7;
82667;PMS5003;72691;51.374;-0.176;2023-12-14T08:51:11;7;7;
82667;PMS5003;72691;51.374;-0.176;2023-12-14T08:53:36;10;8;
82667;PMS5003;72691;51.374;-0.176;2023-12-14T08:56:02;8;7;
82667;PMS5003;72691;51.374;-0.176;2023-12-14T08:58:28;8;7;
82667;PMS5003;72691;51.374;-0.176;2023-12-14T09:00:53;7;7;
82667;PMS5003;72691;51.374;-0.176;2023-12-14T09:03:18;8;8;
82667;PMS5003;72691;51.374;-0.176;2023-12-14T09:05:44;11;9;
82667;PMS5003;72691;51.374;-0.176;2023-12-14T09:08:09;11;11;
82667;PMS5003;72691;51.374;-0.176;2023-12-14T09:10:35;11;11;
82667;PMS5003;72691;51.374;-0.176;2023-12-14T09:13:00;9;8;
82667;PMS5003;72691;51.374;-0.176;2023-12-14T09:15:25;9;9;
82667;PMS5003;72691;51.374;-0.176;2023-12-14T09:17:51;13;12;
82667;PMS5003;72691;51.374;-0.176;2023-12-14T09:20:16;8;8;
82667;PMS5003;72691;51.374;-0.176;2023-12-14T09:22:42;11;9;
82667;PMS5003;72691;51.374;-0.176;2023-12-14T09:25:08;11;9;
82667;PMS5003;72691;51.374;-0.176;2023-12-14T09:27:33;21;18;
82667;PMS5003;72691;51.374;-0.176;2023-12-14T09:29:58;8;8;
82667;PMS5003;72691;51.374;-0.176;2023-12-14T09:32:23;11;11;
82667;PMS5003;72691;51.374;-0.176;2023-12-14T09:34:49;15;15;
82667;PMS5003;72691;51.374;-0.176;2023-12-14T09:37:14;10;10;
82667;PMS5003;72691;51.374;-0.176;2023-12-14T09:39:39;13;10;
82667;PMS5003;72691;51.374;-0.176;2023-12-14T09:42:05;13;12;
82667;PMS5003;72691;51.374;-0.176;2023-12-14T09:44:30;19;15;
82667;PMS5003;72691;51.374;-0.176;2023-12-14T09:46:56;14;14;
82667;PMS5003;72691;51.374;-0.176;2023-12-14T09:49:21;17;15;
82667;PMS5003;72691;51.374;-0.176;2023-12-14T09:51:46;15;14;
82667;PMS5003;72691;51.374;-0.176;2023-12-14T09:54:12;13;13;
82667;PMS5003;72691;51.374;-0.176;2023-12-14T09:59:03;9;8;
82667;PMS5003;72691;51.374;-0.176;2023-12-14T10:01:28;6;6;
82667;PMS5003;72691;51.374;-0.176;2023-12-14T10:06:19;4;4;
82667;PMS5003;72691;51.374;-0.176;2023-12-14T10:11:15;2;2;
82667;PMS5003;72691;51.374;-0.176;2023-12-14T10:13:36;2;2;
82667;PMS5003;72691;51.374;-0.176;2023-12-14T10:16:01;6;4;
82667;PMS5003;72691;51.374;-0.176;2023-12-14T10:18:27;3;3;
82667;PMS5003;72691;51.374;-0.176;2023-12-14T10:20:52;3;2;
82667;PMS5003;72691;51.374;-0.176;2023-12-14T10:23:18;6;4;
82667;PMS5003;72691;51.374;-0.176;2023-12-14T10:25:43;2;2;
82667;PMS5003;72691;51.374;-0.176;2023-12-14T10:28:11;3;2;
82667;PMS5003;72691;51.374;-0.176;2023-12-14T10:30:34;3;3;
82667;PMS5003;72691;51.374;-0.176;2023-12-14T10:32:59;1;1;
82667;PMS5003;72691;51.374;-0.176;2023-12-14T10:35:25;2;2;
82667;PMS5003;72691;51.374;-0.176;2023-12-14T10:37:51;2;2;
82667;PMS5003;72691;51.374;-0.176;2023-12-14T10:40:16;4;4;
82667;PMS5003;72691;51.374;-0.176;2023-12-14T10:42:42;3;3;
82667;PMS5003;72691;51.374;-0.176;2023-12-14T10:45:07;5;3;
82667;PMS5003;72691;51.374;-0.176;2023-12-14T10:47:32;4;4;
82667;PMS5003;72691;51.374;-0.176;2023-12-14T10:49:58;3;3;
82667;PMS5003;72691;51.374;-0.176;2023-12-14T10:52:23;2;1;
82667;PMS5003;72691;51.374;-0.176;2023-12-14T10:54:49;3;3;
82667;PMS5003;72691;51.374;-0.176;2023-12-14T10:57:14;6;4;
82667;PMS5003;72691;51.374;-0.176;2023-12-14T10:59:41;3;3;
82667;PMS5003;72691;51.374;-0.176;2023-12-14T11:02:07;3;3;
82667;PMS5003;72691;51.374;-0.176;2023-12-14T11:04:30;3;3;
82667;PMS5003;72691;51.374;-0.176;2023-12-14T11:06:57;3;3;
82667;PMS5003;72691;51.374;-0.176;2023-12-14T11:09:22;6;3;
82667;PMS5003;72691;51.374;-0.176;2023-12-14T11:11:54;3;3;
82667;PMS5003;72691;51.374;-0.176;2023-12-14T11:14:12;3;3;
82667;PMS5003;72691;51.374;-0.176;2023-12-14T11:16:38;6;4;
82667;PMS5003;72691;51.374;-0.176;2023-12-14T11:21:29;4;3;
82667;PMS5003;72691;51.374;-0.176;2023-12-14T11:23:54;6;6;
82667;PMS5003;72691;51.374;-0.176;2023-12-14T11:26:20;7;7;
82667;PMS5003;72691;51.374;-0.176;2023-12-14T11:28:45;7;6;
82667;PMS5003;72691;51.374;-0.176;2023-12-14T11:31:11;4;4;
82667;PMS5003;72691;51.374;-0.176;2023-12-14T11:33:36;7;6;
82667;PMS5003;72691;51.374;-0.176;2023-12-14T11:36:02;3;3;
82667;PMS5003;72691;51.374;-0.176;2023-12-14T11:38:27;4;4;
82667;PMS5003;72691;51.374;-0.176;2023-12-14T11:40:52;4;4;
82667;PMS5003;72691;51.374;-0.176;2023-12-14T11:43:18;4;4;
82667;PMS5003;72691;51.374;-0.176;2023-12-14T11:45:43;6;6;
82667;PMS5003;72691;51.374;-0.176;2023-12-14T11:48:09;6;4;
82667;PMS5003;72691;51.374;-0.176;2023-12-14T11:50:34;3;3;
82667;PMS5003;72691;51.374;-0.176;2023-12-14T11:53:00;6;4;
82667;PMS5003;72691;51.374;-0.176;2023-12-14T11:55:25;7;7;
82667;PMS5003;72691;51.374;-0.176;2023-12-14T11:57:50;7;6;
82667;PMS5003;72691;51.374;-0.176;2023-12-14T12:00:16;4;4;
82667;PMS5003;72691;51.374;-0.176;2023-12-14T12:02:41;6;6;
82667;PMS5003;72691;51.374;-0.176;2023-12-14T12:05:07;6;6;
82667;PMS5003;72691;51.374;-0.176;2023-12-14T12:07:32;7;6;
82667;PMS5003;72691;51.374;-0.176;2023-12-14T12:09:58;7;7;
82667;PMS5003;72691;51.374;-0.176;2023-12-14T12:12:23;4;4;
82667;PMS5003;72691;51.374;-0.176;2023-12-14T12:14:49;7;7;
82667;PMS5003;72691;51.374;-0.176;2023-12-14T12:17:14;7;6;
82667;PMS5003;72691;51.374;-0.176;2023-12-14T12:19:39;7;7;
82667;PMS5003;72691;51.374;-0.176;2023-12-14T12:22:05;7;7;
82667;PMS5003;72691;51.374;-0.176;2023-12-14T12:24:31;10;9;
82667;PMS5003;72691;51.374;-0.176;2023-12-14T12:26:56;7;7;
82667;PMS5003;72691;51.374;-0.176;2023-12-14T12:29:22;6;6;
82667;PMS5003;72691;51.374;-0.176;2023-12-14T12:31:47;4;4;
82667;PMS5003;72691;51.374;-0.176;2023-12-14T12:34:13;7;6;
82667;PMS5003;72691;51.374;-0.176;2023-12-14T12:36:38;7;6;
82667;PMS5003;72691;51.374;-0.176;2023-12-14T12:39:04;4;4;
82667;PMS5003;72691;51.374;-0.176;2023-12-14T12:41:29;6;6;
82667;PMS5003;72691;51.374;-0.176;2023-12-14T12:43:54;7;7;
82667;PMS5003;72691;51.374;-0.176;2023-12-14T12:46:20;7;7;
82667;PMS5003;72691;51.374;-0.176;2023-12-14T12:48:45;6;6;
82667;PMS5003;72691;51.374;-0.176;2023-12-14T12:51:11;7;7;
82667;PMS5003;72691;51.374;-0.176;2023-12-14T12:53:36;6;6;
82667;PMS5003;72691;51.374;-0.176;2023-12-14T12:56:02;7;7;
82667;PMS5003;72691;51.374;-0.176;2023-12-14T12:58:27;8;8;
82667;PMS5003;72691;51.374;-0.176;2023-12-14T13:00:53;7;6;
82667;PMS5003;72691;51.374;-0.176;2023-12-14T13:03:18;8;8;
82667;PMS5003;72691;51.374;-0.176;2023-12-14T13:05:43;7;7;
82667;PMS5003;72691;51.374;-0.176;2023-12-14T13:08:09;6;6;
82667;PMS5003;72691;51.374;-0.176;2023-12-14T13:10:34;7;7;
82667;PMS5003;72691;51.374;-0.176;2023-12-14T13:12:59;7;7;
82667;PMS5003;72691;51.374;-0.176;2023-12-14T13:15:25;8;7;
82667;PMS5003;72691;51.374;-0.176;2023-12-14T13:17:51;8;7;
82667;PMS5003;72691;51.374;-0.176;2023-12-14T13:20:16;7;7;
82667;PMS5003;72691;51.374;-0.176;2023-12-14T13:22:41;9;9;
82667;PMS5003;72691;51.374;-0.176;2023-12-14T13:25:07;8;8;
82667;PMS5003;72691;51.374;-0.176;2023-12-14T13:27:32;9;9;
82667;PMS5003;72691;51.374;-0.176;2023-12-14T13:29:58;11;10;
82667;PMS5003;72691;51.374;-0.176;2023-12-14T13:32:23;8;8;
82667;PMS5003;72691;51.374;-0.176;2023-12-14T13:34:49;10;10;
82667;PMS5003;72691;51.374;-0.176;2023-12-14T13:37:14;9;8;
82667;PMS5003;72691;51.374;-0.176;2023-12-14T13:39:39;8;7;
82667;PMS5003;72691;51.374;-0.176;2023-12-14T13:42:05;11;8;
82667;PMS5003;72691;51.374;-0.176;2023-12-14T13:44:30;10;10;
82667;PMS5003;72691;51.374;-0.176;2023-12-14T13:46:56;8;8;
82667;PMS5003;72691;51.374;-0.176;2023-12-14T13:49:21;10;10;
82667;PMS5003;72691;51.374;-0.176;2023-12-14T13:51:47;9;9;
82667;PMS5003;72691;51.374;-0.176;2023-12-14T13:54:12;13;11;
82667;PMS5003;72691;51.374;-0.176;2023-12-14T13:56:38;10;10;
82667;PMS5003;72691;51.374;-0.176;2023-12-14T13:59:03;14;12;
82667;PMS5003;72691;51.374;-0.176;2023-12-14T14:01:28;13;11;
82667;PMS5003;72691;51.374;-0.176;2023-12-14T14:03:54;13;13;
82667;PMS5003;72691;51.374;-0.176;2023-12-14T14:06:19;12;11;
82667;PMS5003;72691;51.374;-0.176;2023-12-14T14:08:45;14;12;
82667;PMS5003;72691;51.374;-0.176;2023-12-14T14:11:10;12;11;
82667;PMS5003;72691;51.374;-0.176;2023-12-14T14:13:36;12;11;
82667;PMS5003;72691;51.374;-0.176;2023-12-14T14:16:01;13;13;
82667;PMS5003;72691;51.374;-0.176;2023-12-14T14:18:27;11;11;
82667;PMS5003;72691;51.374;-0.176;2023-12-14T14:20:52;11;11;
82667;PMS5003;72691;51.374;-0.176;2023-12-14T14:23:17;13;11;
82667;PMS5003;72691;51.374;-0.176;2023-12-14T14:25:43;12;12;
82667;PMS5003;72691;51.374;-0.176;2023-12-14T14:28:08;11;11;
82667;PMS5003;72691;51.374;-0.176;2023-12-14T14:30:34;12;12;
82667;PMS5003;72691;51.374;-0.176;2023-12-14T14:32:59;11;11;
82667;PMS5003;72691;51.374;-0.176;2023-12-14T14:35:25;11;10;
82667;PMS5003;72691;51.374;-0.176;2023-12-14T14:37:50;11;11;
82667;PMS5003;72691;51.374;-0.176;2023-12-14T14:40:16;12;12;
82667;PMS5003;72691;51.374;-0.176;2023-12-14T14:42:41;17;17;
82667;PMS5003;72691;51.374;-0.176;2023-12-14T14:45:06;15;13;
82667;PMS5003;72691;51.374;-0.176;2023-12-14T14:47:32;15;15;
82667;PMS5003;72691;51.374;-0.176;2023-12-14T14:49:57;16;16;
82667;PMS5003;72691;51.374;-0.176;2023-12-14T14:52:23;12;12;
82667;PMS5003;72691;51.374;-0.176;2023-12-14T14:54:48;13;13;
82667;PMS5003;72691;51.374;-0.176;2023-12-14T14:57:13;13;13;
82667;PMS5003;72691;51.374;-0.176;2023-12-14T14:59:39;16;16;
82667;PMS5003;72691;51.374;-0.176;2023-12-14T15:02:04;19;18;
82667;PMS5003;72691;51.374;-0.176;2023-12-14T15:04:29;15;15;
82667;PMS5003;72691;51.374;-0.176;2023-12-14T15:06:55;17;17;
82667;PMS5003;72691;51.374;-0.176;2023-12-14T15:09:20;15;15;
82667;PMS5003;72691;51.374;-0.176;2023-12-14T15:11:46;19;19;
82667;PMS5003;72691;51.374;-0.176;2023-12-14T15:14:11;14;14;
82667;PMS5003;72691;51.374;-0.176;2023-12-14T15:16:36;13;13;
82667;PMS5003;72691;51.374;-0.176;2023-12-14T15:19:02;17;16;
82667;PMS5003;72691;51.374;-0.176;2023-12-14T15:21:27;21;19;
82667;PMS5003;72691;51.374;-0.176;2023-12-14T15:23:53;16;16;
82667;PMS5003;72691;51.374;-0.176;2023-12-14T15:26:18;16;14;
82667;PMS5003;72691;51.374;-0.176;2023-12-14T15:28:44;15;15;
82667;PMS5003;72691;51.374;-0.176;2023-12-14T15:31:09;18;18;
82667;PMS5003;72691;51.374;-0.176;2023-12-14T15:33:34;20;20;
82667;PMS5003;72691;51.374;-0.176;2023-12-14T15:36:00;19;18;
82667;PMS5003;72691;51.374;-0.176;2023-12-14T15:38:25;18;17;
82667;PMS5003;72691;51.374;-0.176;2023-12-14T15:40:50;19;19;
82667;PMS5003;72691;51.374;-0.176;2023-12-14T15:43:15;20;19;
82667;PMS5003;72691;51.374;-0.176;2023-12-14T15:45:41;23;21;
82667;PMS5003;72691;51.374;-0.176;2023-12-14T15:48:06;17;17;
82667;PMS5003;72691;51.374;-0.176;2023-12-14T15:50:31;19;19;
82667;PMS5003;72691;51.374;-0.176;2023-12-14T15:52:57;18;18;
82667;PMS5003;72691;51.374;-0.176;2023-12-14T15:55:22;21;20;
82667;PMS5003;72691;51.374;-0.176;2023-12-14T15:57:48;20;20;
82667;PMS5003;72691;51.374;-0.176;2023-12-14T16:00:14;18;18;
82667;PMS5003;72691;51.374;-0.176;2023-12-14T16:02:39;24;22;
82667;PMS5003;72691;51.374;-0.176;2023-12-14T16:05:05;19;18;
82667;PMS5003;72691;51.374;-0.176;2023-12-14T16:07:30;21;21;
82667;PMS5003;72691;51.374;-0.176;2023-12-14T16:09:55;27;25;
82667;PMS5003;72691;51.374;-0.176;2023-12-14T16:12:21;23;19;
82667;PMS5003;72691;51.374;-0.176;2023-12-14T16:14:46;24;24;
82667;PMS5003;72691;51.374;-0.176;2023-12-14T16:17:12;23;22;
82667;PMS5003;72691;51.374;-0.176;2023-12-14T16:19:37;24;24;